Time;durP1;ratioP1;P1;durP2;ratioP2;P2;SDS_P1;SDS_P2;PMS_P1;PMS_P2;Temp;Humidity;BMP_temperature;BMP_pressure;BME280_temperature;BME280_humidity;BME280_pressure;Samples;Min_cycle;Max_cycle;Signal;HPM_P1;HPM_P2
2022/11/04 00:00:31;;;;;;;;;;;;;;;;;;7364954;19;1282;-61
2022/11/04 00:02:59;;;;;;;;;;;;;;;;;;7367662;19;783;-60
2022/11/04 00:05:27;;;;;;;;;;;;;;;;;;7367957;19;872;-58
2022/11/04 00:13:19;;;;;;;;;;;;;;;;;;7370131;19;1992;-61
2022/11/04 00:18:28;;;;;;;;;;;;;;;;;;7366905;19;835;-61
2022/11/04 00:28:58;;;;;;;;;;;;;;;;;;7366141;19;1235;-62
2022/11/04 00:34:07;;;;;;;;;;;;;;;;;;7366767;19;1956;-58
2022/11/04 00:36:35;;;;;;;;;;;;;;;;;;7366150;19;1953;-56
2022/11/04 00:39:04;;;;;;;;;;;;;;;;;;7364319;19;1278;-59
2022/11/04 00:41:32;;;;;;;;;;;;;;;;;;7365194;19;830;-58
2022/11/04 00:44:00;;;;;;;;;;;;;;;;;;7365830;19;826;-56
2022/11/04 00:46:28;;;;;;;;;;;;;;;;;;7364560;19;1835;-57
2022/11/04 00:48:56;;;;;;;;;;;;;;;;;;7364406;19;1302;-57
2022/11/04 00:51:24;;;;;;;;;;;;;;;;;;7368710;19;1958;-60
2022/11/04 00:53:52;;;;;;;;;;;;;;;;;;7367554;19;866;-60
2022/11/04 00:56:20;;;;;;;;;;;;;;;;;;7372131;19;863;-59
2022/11/04 00:58:49;;;;;;;;;;;;;;;;;;7370791;19;1298;-60
2022/11/04 01:01:17;;;;;;;;;;;;;;;;;;7371387;19;842;-57
2022/11/04 01:03:45;;;;;;;;;;;;;;;;;;7370220;19;827;-53
2022/11/04 01:06:13;;;;;;;;;;;;;;;;;;7371964;19;1979;-57
2022/11/04 01:08:42;;;;;;;;;;;;;;;;;;7370927;19;2003;-56
2022/11/04 01:11:10;;;;;;;;;;;;;;;;;;7371984;19;800;-54
2022/11/04 01:13:38;;;;;;;;;;;;;;;;;;7372249;19;790;-56
2022/11/04 01:16:06;;;;;;;;;;;;;;;;;;7371254;19;865;-55
2022/11/04 01:18:34;;;;;;;;;;;;;;;;;;7370866;19;866;-60
2022/11/04 01:21:02;;;;;;;;;;;;;;;;;;7370014;19;1362;-59
2022/11/04 01:23:30;;;;;;;;;;;;;;;;;;7374139;19;1962;-59
2022/11/04 01:25:59;;;;;;;;;;;;;;;;;;7371679;19;1864;-59
2022/11/04 01:28:27;;;;;;;;;;;;;;;;;;7369909;19;810;-61
2022/11/04 01:30:55;;;;;;;;;;;;;;;;;;7373659;19;2345;-57
2022/11/04 01:33:23;;;;;;;;;;;;;;;;;;7370769;19;724;-61
2022/11/04 01:35:51;;;;;;;;;;;;;;;;;;7371476;19;826;-61
2022/11/04 01:38:20;;;;;;;;;;;;;;;;;;7373066;19;1936;-60
2022/11/04 01:40:48;;;;;;;;;;;;;;;;;;7369250;19;1228;-61
2022/11/04 01:43:16;;;;;;;;;;;;;;;;;;7370760;19;1389;-59
2022/11/04 01:45:44;;;;;;;;;;;;;;;;;;7371343;19;779;-61
2022/11/04 01:48:12;;;;;;;;;;;;;;;;;;7369015;19;1849;-58
2022/11/04 01:50:40;;;;;;;;;;;;;;;;;;7370346;19;1287;-60
2022/11/04 01:53:08;;;;;;;;;;;;;;;;;;7374042;19;1953;-57
2022/11/04 01:55:36;;;;;;;;;;;;;;;;;;7375443;19;1951;-61
2022/11/04 01:58:05;;;;;;;;;;;;;;;;;;7370227;19;764;-59
2022/11/04 02:00:33;;;;;;;;;;;;;;;;;;7369092;19;1324;-61
2022/11/04 02:03:01;;;;;;;;;;;;;;;;;;7370849;19;831;-61
2022/11/04 02:05:29;;;;;;;;;;;;;;;;;;7369764;19;764;-59
2022/11/04 02:07:57;;;;;;;;;;;;;;;;;;7366431;19;1838;-57
2022/11/04 02:10:26;;;;;;;;;;;;;;;;;;7370779;19;2013;-56
2022/11/04 02:12:51;;;;;;;;;;;;;;;;;;7373759;19;1992;-58
2022/11/04 02:15:19;;;;;;;;;;;;;;;;;;7371255;19;843;-60
2022/11/04 02:17:47;;;;;;;;;;;;;;;;;;7369677;19;781;-60
2022/11/04 02:20:15;;;;;;;;;;;;;;;;;;7368923;19;1220;-57
2022/11/04 02:22:44;;;;;;;;;;;;;;;;;;7369586;19;802;-55
2022/11/04 02:25:12;;;;;;;;;;;;;;;;;;7370437;19;1943;-58
2022/11/04 02:27:41;;;;;;;;;;;;;;;;;;7367744;19;1845;-61
2022/11/04 02:30:09;;;;;;;;;;;;;;;;;;7372678;19;1922;-60
2022/11/04 02:32:37;;;;;;;;;;;;;;;;;;7369847;19;882;-61
2022/11/04 02:35:05;;;;;;;;;;;;;;;;;;7369292;19;803;-61
2022/11/04 02:37:34;;;;;;;;;;;;;;;;;;7370043;19;882;-62
2022/11/04 02:40:02;;;;;;;;;;;;;;;;;;7367705;19;1297;-62
2022/11/04 02:42:30;;;;;;;;;;;;;;;;;;7372262;19;1825;-59
2022/11/04 02:44:58;;;;;;;;;;;;;;;;;;7373188;19;1972;-59
2022/11/04 02:47:26;;;;;;;;;;;;;;;;;;7371453;19;1931;-60
2022/11/04 02:49:55;;;;;;;;;;;;;;;;;;7367075;19;1275;-61
2022/11/04 02:52:23;;;;;;;;;;;;;;;;;;7369785;19;802;-61
2022/11/04 02:54:51;;;;;;;;;;;;;;;;;;7369146;19;783;-58
2022/11/04 02:57:19;;;;;;;;;;;;;;;;;;7369579;19;1941;-62
2022/11/04 02:59:47;;;;;;;;;;;;;;;;;;7367770;19;1952;-60
2022/11/04 03:02:15;;;;;;;;;;;;;;;;;;7368986;19;902;-60
2022/11/04 03:04:44;;;;;;;;;;;;;;;;;;7368656;19;878;-62
2022/11/04 03:07:12;;;;;;;;;;;;;;;;;;7367503;19;1841;-60
2022/11/04 03:09:40;;;;;;;;;;;;;;;;;;7369339;19;2307;-61
2022/11/04 03:12:08;;;;;;;;;;;;;;;;;;7368482;19;847;-62
2022/11/04 03:14:36;;;;;;;;;;;;;;;;;;7373528;19;2207;-60
2022/11/04 03:17:04;;;;;;;;;;;;;;;;;;7366282;19;802;-55
2022/11/04 03:19:32;;;;;;;;;;;;;;;;;;7370377;19;1936;-63
2022/11/04 03:22:00;;;;;;;;;;;;;;;;;;7368925;19;807;-60
2022/11/04 03:24:29;;;;;;;;;;;;;;;;;;7368405;19;829;-63
2022/11/04 03:26:57;;;;;;;;;;;;;;;;;;7368027;19;1842;-59
2022/11/04 03:29:25;;;;;;;;;;;;;;;;;;7368931;19;1936;-63
2022/11/04 03:31:53;;;;;;;;;;;;;;;;;;7373229;19;1972;-63
2022/11/04 03:34:21;;;;;;;;;;;;;;;;;;7368840;19;847;-60
2022/11/04 03:36:49;;;;;;;;;;;;;;;;;;7368691;19;760;-61
2022/11/04 03:39:17;;;;;;;;;;;;;;;;;;7366359;19;1940;-63
2022/11/04 03:41:46;;;;;;;;;;;;;;;;;;7368926;19;824;-60
2022/11/04 03:44:14;;;;;;;;;;;;;;;;;;7369045;19;1838;-63
2022/11/04 03:46:42;;;;;;;;;;;;;;;;;;7373206;19;1987;-62
2022/11/04 03:49:10;;;;;;;;;;;;;;;;;;7367014;19;1322;-61
2022/11/04 03:51:38;;;;;;;;;;;;;;;;;;7368792;19;859;-60
2022/11/04 03:54:07;;;;;;;;;;;;;;;;;;7369739;19;2023;-63
2022/11/04 03:56:35;;;;;;;;;;;;;;;;;;7370119;19;2045;-62
2022/11/04 03:59:04;;;;;;;;;;;;;;;;;;7367349;19;1371;-64
2022/11/04 04:01:32;;;;;;;;;;;;;;;;;;7368935;19;1973;-63
2022/11/04 04:04:00;;;;;;;;;;;;;;;;;;7368541;19;811;-64
2022/11/04 04:06:28;;;;;;;;;;;;;;;;;;7367883;19;754;-63
2022/11/04 04:08:56;;;;;;;;;;;;;;;;;;7363880;19;1857;-59
2022/11/04 04:11:24;;;;;;;;;;;;;;;;;;7368414;19;2211;-59
2022/11/04 04:13:53;;;;;;;;;;;;;;;;;;7367553;19;756;-61
2022/11/04 04:16:21;;;;;;;;;;;;;;;;;;7367205;19;870;-62
2022/11/04 04:18:49;;;;;;;;;;;;;;;;;;7366521;19;1341;-62
2022/11/04 04:21:17;;;;;;;;;;;;;;;;;;7367167;19;836;-61
2022/11/04 04:29:06;;;;;;;;;;;;;;;;;;7363064;19;1858;-61
2022/11/04 04:34:15;;;;;;;;;;;;;;;;;;7367267;19;883;-61
2022/11/04 04:36:43;;;;;;;;;;;;;;;;;;7366890;19;806;-62
2022/11/04 04:47:18;;;;;;;;;;;;;;;;;;7365585;19;1849;-62
2022/11/04 04:49:46;;;;;;;;;;;;;;;;;;7364342;19;1346;-63
2022/11/04 04:52:14;;;;;;;;;;;;;;;;;;7366188;19;866;-63
2022/11/04 04:54:43;;;;;;;;;;;;;;;;;;7366218;19;823;-58
2022/11/04 04:57:11;;;;;;;;;;;;;;;;;;7365347;19;1831;-59
2022/11/04 04:59:40;;;;;;;;;;;;;;;;;;7367087;19;2192;-60
2022/11/04 05:02:08;;;;;;;;;;;;;;;;;;7366707;19;956;-62
2022/11/04 05:04:36;;;;;;;;;;;;;;;;;;7366560;19;790;-61
2022/11/04 05:07:05;;;;;;;;;;;;;;;;;;7366671;19;1838;-59
2022/11/04 05:09:33;;;;;;;;;;;;;;;;;;7365846;19;1312;-62
2022/11/04 05:12:01;;;;;;;;;;;;;;;;;;7367012;19;1832;-60
2022/11/04 05:14:30;;;;;;;;;;;;;;;;;;7366132;19;902;-59
2022/11/04 05:16:58;;;;;;;;;;;;;;;;;;7366170;19;873;-62
2022/11/04 05:19:26;;;;;;;;;;;;;;;;;;7364449;19;2059;-62
2022/11/04 05:21:56;;;;;;;;;;;;;;;;;;7364231;19;764;-61
2022/11/04 05:24:24;;;;;;;;;;;;;;;;;;7365005;19;772;-60
2022/11/04 05:26:52;;;;;;;;;;;;;;;;;;7365328;19;767;-62
2022/11/04 05:29:20;;;;;;;;;;;;;;;;;;7365151;19;1845;-54
2022/11/04 05:31:49;;;;;;;;;;;;;;;;;;7364319;19;854;-56
2022/11/04 05:34:17;;;;;;;;;;;;;;;;;;7364888;19;903;-59
2022/11/04 05:36:45;;;;;;;;;;;;;;;;;;7368676;19;1753;-59
2022/11/04 05:39:13;;;;;;;;;;;;;;;;;;7363675;19;1275;-63
2022/11/04 05:41:41;;;;;;;;;;;;;;;;;;7370972;19;799;-58
2022/11/04 05:44:10;;;;;;;;;;;;;;;;;;7372747;19;1855;-57
2022/11/04 05:46:38;;;;;;;;;;;;;;;;;;7370496;19;933;-59
2022/11/04 05:49:06;;;;;;;;;;;;;;;;;;7373053;19;2178;-59
2022/11/04 05:51:34;;;;;;;;;;;;;;;;;;7372495;19;836;-63
2022/11/04 05:54:02;;;;;;;;;;;;;;;;;;7371349;19;818;-62
2022/11/04 05:56:30;;;;;;;;;;;;;;;;;;7373993;19;858;-63
2022/11/04 05:58:58;;;;;;;;;;;;;;;;;;7369794;19;1341;-62
2022/11/04 06:01:27;;;;;;;;;;;;;;;;;;7372050;19;830;-60
2022/11/04 06:03:55;;;;;;;;;;;;;;;;;;7371598;19;854;-61
2022/11/04 06:06:23;;;;;;;;;;;;;;;;;;7371205;19;686;-58
2022/11/04 06:08:51;;;;;;;;;;;;;;;;;;7370641;19;1868;-58
2022/11/04 06:11:19;;;;;;;;;;;;;;;;;;7376615;19;1181;-64
2022/11/04 06:13:47;;;;;;;;;;;;;;;;;;7378080;19;974;-61
2022/11/04 06:16:15;;;;;;;;;;;;;;;;;;7375814;19;1929;-63
2022/11/04 06:18:44;;;;;;;;;;;;;;;;;;7370350;19;1344;-61
2022/11/04 06:21:12;;;;;;;;;;;;;;;;;;7376096;19;1425;-61
2022/11/04 06:23:40;;;;;;;;;;;;;;;;;;7370724;19;785;-57
2022/11/04 06:26:08;;;;;;;;;;;;;;;;;;7371326;19;878;-59
2022/11/04 06:28:36;;;;;;;;;;;;;;;;;;7367562;19;1856;-61
2022/11/04 06:31:04;;;;;;;;;;;;;;;;;;7371795;19;1947;-61
2022/11/04 06:33:32;;;;;;;;;;;;;;;;;;7373097;19;935;-58
2022/11/04 06:36:01;;;;;;;;;;;;;;;;;;7366751;19;811;-61
2022/11/04 06:38:29;;;;;;;;;;;;;;;;;;7370393;19;2003;-62
2022/11/04 06:40:57;;;;;;;;;;;;;;;;;;7366906;19;1241;-61
2022/11/04 06:43:25;;;;;;;;;;;;;;;;;;7370063;19;818;-61
2022/11/04 06:45:53;;;;;;;;;;;;;;;;;;7373530;19;814;-60
2022/11/04 06:48:21;;;;;;;;;;;;;;;;;;7367843;19;1842;-63
2022/11/04 06:50:49;;;;;;;;;;;;;;;;;;7368725;19;1745;-61
2022/11/04 06:53:18;;;;;;;;;;;;;;;;;;7368199;19;787;-61
2022/11/04 06:55:46;;;;;;;;;;;;;;;;;;7371047;19;1964;-61
2022/11/04 06:58:14;;;;;;;;;;;;;;;;;;7368530;19;875;-62
2022/11/04 07:00:42;;;;;;;;;;;;;;;;;;7366380;19;1285;-61
2022/11/04 07:03:10;;;;;;;;;;;;;;;;;;7369470;19;828;-60
2022/11/04 07:05:38;;;;;;;;;;;;;;;;;;7369628;19;816;-62
2022/11/04 07:08:07;;;;;;;;;;;;;;;;;;7367679;19;1852;-62
2022/11/04 07:10:35;;;;;;;;;;;;;;;;;;7367212;19;1338;-59
2022/11/04 07:13:03;;;;;;;;;;;;;;;;;;7368811;19;878;-64
2022/11/04 07:15:32;;;;;;;;;;;;;;;;;;7372250;19;1023;-59
2022/11/04 07:18:00;;;;;;;;;;;;;;;;;;7368256;19;968;-57
2022/11/04 07:20:28;;;;;;;;;;;;;;;;;;7367239;19;1325;-59
2022/11/04 07:22:56;;;;;;;;;;;;;;;;;;7370526;19;2003;-60
2022/11/04 07:25:25;;;;;;;;;;;;;;;;;;7368455;19;812;-64
2022/11/04 07:27:53;;;;;;;;;;;;;;;;;;7369053;19;1844;-62
2022/11/04 07:30:21;;;;;;;;;;;;;;;;;;7368512;19;1995;-63
2022/11/04 07:32:50;;;;;;;;;;;;;;;;;;7368382;19;822;-58
2022/11/04 07:35:18;;;;;;;;;;;;;;;;;;7369943;19;763;-58
2022/11/04 07:37:46;;;;;;;;;;;;;;;;;;7368389;19;855;-59
2022/11/04 07:40:14;;;;;;;;;;;;;;;;;;7365538;19;1298;-60
2022/11/04 07:42:42;;;;;;;;;;;;;;;;;;7371522;19;1798;-60
2022/11/04 07:45:17;;;;;;;;;;;;;;;;;;7367949;19;802;-63
2022/11/04 07:47:45;;;;;;;;;;;;;;;;;;7367962;19;1830;-62
2022/11/04 07:50:13;;;;;;;;;;;;;;;;;;7367511;19;1967;-61
2022/11/04 07:52:41;;;;;;;;;;;;;;;;;;7369694;19;807;-62
2022/11/04 07:55:10;;;;;;;;;;;;;;;;;;7367894;19;772;-62
2022/11/04 07:57:38;;;;;;;;;;;;;;;;;;7366944;19;832;-62
2022/11/04 08:00:08;;;;;;;;;;;;;;;;;;7366742;19;1332;-62
2022/11/04 08:02:40;;;;;;;;;;;;;;;;;;7368777;19;755;-62
2022/11/04 08:05:08;;;;;;;;;;;;;;;;;;7368702;19;853;-61
2022/11/04 08:07:36;;;;;;;;;;;;;;;;;;7367889;19;810;-64
2022/11/04 08:10:04;;;;;;;;;;;;;;;;;;7365029;19;1845;-59
2022/11/04 08:12:33;;;;;;;;;;;;;;;;;;7368485;19;851;-62
2022/11/04 08:15:01;;;;;;;;;;;;;;;;;;7368786;19;802;-63
2022/11/04 08:17:29;;;;;;;;;;;;;;;;;;7368562;19;1785;-60
2022/11/04 08:19:57;;;;;;;;;;;;;;;;;;7364528;19;1349;-59
2022/11/04 08:22:25;;;;;;;;;;;;;;;;;;7365077;19;779;-61
2022/11/04 08:24:54;;;;;;;;;;;;;;;;;;7367133;19;867;-62
2022/11/04 08:27:22;;;;;;;;;;;;;;;;;;7366033;19;831;-60
2022/11/04 08:29:50;;;;;;;;;;;;;;;;;;7367223;19;2385;-58
2022/11/04 08:32:18;;;;;;;;;;;;;;;;;;7365855;19;1972;-57
2022/11/04 08:34:47;;;;;;;;;;;;;;;;;;7367833;19;849;-60
2022/11/04 08:37:16;;;;;;;;;;;;;;;;;;7367999;19;832;-62
2022/11/04 08:39:44;;;;;;;;;;;;;;;;;;7365473;19;1345;-62
2022/11/04 08:42:12;;;;;;;;;;;;;;;;;;7367515;19;776;-62
2022/11/04 08:44:41;;;;;;;;;;;;;;;;;;7367562;19;866;-60
2022/11/04 08:47:09;;;;;;;;;;;;;;;;;;7368254;19;834;-60
2022/11/04 08:49:38;;;;;;;;;;;;;;;;;;7364638;19;1853;-62
2022/11/04 08:52:06;;;;;;;;;;;;;;;;;;7367991;19;803;-62
2022/11/04 08:54:34;;;;;;;;;;;;;;;;;;7367898;19;806;-63
2022/11/04 08:57:02;;;;;;;;;;;;;;;;;;7367390;19;808;-63
2022/11/04 08:59:30;;;;;;;;;;;;;;;;;;7366593;19;1274;-58
2022/11/04 09:01:58;;;;;;;;;;;;;;;;;;7372705;19;1841;-62
2022/11/04 09:04:27;;;;;;;;;;;;;;;;;;7367342;19;787;-62
2022/11/04 09:06:56;;;;;;;;;;;;;;;;;;7366510;19;788;-61
2022/11/04 09:09:24;;;;;;;;;;;;;;;;;;7366273;19;1845;-61
2022/11/04 09:11:52;;;;;;;;;;;;;;;;;;7368393;19;884;-62
2022/11/04 09:14:22;;;;;;;;;;;;;;;;;;7368867;19;836;-60
2022/11/04 09:16:50;;;;;;;;;;;;;;;;;;7378768;19;2005;-62
2022/11/04 09:19:18;;;;;;;;;;;;;;;;;;7376702;19;1956;-62
2022/11/04 09:21:47;;;;;;;;;;;;;;;;;;7376773;19;879;-60
2022/11/04 09:24:15;;;;;;;;;;;;;;;;;;7379310;19;1595;-57
2022/11/04 09:26:43;;;;;;;;;;;;;;;;;;7375339;19;732;-61
2022/11/04 09:29:11;;;;;;;;;;;;;;;;;;7373782;19;1979;-62
2022/11/04 09:31:42;;;;;;;;;;;;;;;;;;7375225;19;846;-62
2022/11/04 09:34:10;;;;;;;;;;;;;;;;;;7375088;19;719;-61
2022/11/04 09:36:38;;;;;;;;;;;;;;;;;;7375351;19;780;-60
2022/11/04 09:39:06;;;;;;;;;;;;;;;;;;7372598;19;1362;-58
2022/11/04 09:41:34;;;;;;;;;;;;;;;;;;7373070;19;1694;-60
2022/11/04 09:44:02;;;;;;;;;;;;;;;;;;7371402;19;766;-62
2022/11/04 09:46:30;;;;;;;;;;;;;;;;;;7371742;19;859;-61
2022/11/04 09:48:59;;;;;;;;;;;;;;;;;;7371392;19;1814;-63
2022/11/04 09:51:27;;;;;;;;;;;;;;;;;;7371661;19;889;-62
2022/11/04 09:53:55;;;;;;;;;;;;;;;;;;7372305;19;822;-63
2022/11/04 09:56:23;;;;;;;;;;;;;;;;;;7372482;19;807;-61
2022/11/04 09:58:51;;;;;;;;;;;;;;;;;;7373793;19;1969;-60
2022/11/04 10:01:20;;;;;;;;;;;;;;;;;;7371173;19;859;-59
2022/11/04 10:03:48;;;;;;;;;;;;;;;;;;7372677;19;1971;-60
2022/11/04 10:06:16;;;;;;;;;;;;;;;;;;7374770;19;1967;-58
2022/11/04 10:08:44;;;;;;;;;;;;;;;;;;7370727;19;1849;-62
2022/11/04 10:11:12;;;;;;;;;;;;;;;;;;7370887;19;811;-62
2022/11/04 10:13:41;;;;;;;;;;;;;;;;;;7370414;19;726;-63
2022/11/04 10:16:09;;;;;;;;;;;;;;;;;;7375056;19;1732;-57
2022/11/04 10:18:37;;;;;;;;;;;;;;;;;;7374532;19;2089;-61
2022/11/04 10:21:06;;;;;;;;;;;;;;;;;;7369005;19;1319;-59
2022/11/04 10:23:34;;;;;;;;;;;;;;;;;;7371401;19;1941;-62
2022/11/04 10:26:03;;;;;;;;;;;;;;;;;;7372913;19;2020;-62
2022/11/04 10:28:31;;;;;;;;;;;;;;;;;;7369441;19;1838;-62
2022/11/04 10:30:59;;;;;;;;;;;;;;;;;;7369877;19;2273;-61
2022/11/04 10:33:27;;;;;;;;;;;;;;;;;;7370454;19;819;-61
2022/11/04 10:35:57;;;;;;;;;;;;;;;;;;7370651;19;808;-60
2022/11/04 10:38:25;;;;;;;;;;;;;;;;;;7370351;19;930;-62
2022/11/04 10:40:54;;;;;;;;;;;;;;;;;;7369714;19;1299;-60
2022/11/04 10:43:22;;;;;;;;;;;;;;;;;;7371729;19;795;-58
2022/11/04 10:45:50;;;;;;;;;;;;;;;;;;7371893;19;799;-60
2022/11/04 10:48:18;;;;;;;;;;;;;;;;;;7370673;19;872;-63
2022/11/04 10:50:47;;;;;;;;;;;;;;;;;;7368254;19;1967;-62
2022/11/04 10:53:15;;;;;;;;;;;;;;;;;;7370768;19;862;-63
2022/11/04 10:55:43;;;;;;;;;;;;;;;;;;7370724;19;835;-61
2022/11/04 10:58:11;;;;;;;;;;;;;;;;;;7368504;19;831;-62
2022/11/04 11:00:39;;;;;;;;;;;;;;;;;;7369142;19;2023;-62
2022/11/04 11:03:08;;;;;;;;;;;;;;;;;;7369836;19;818;-60
2022/11/04 11:05:36;;;;;;;;;;;;;;;;;;7369285;19;1186;-63
2022/11/04 11:08:04;;;;;;;;;;;;;;;;;;7372942;19;1209;-58
2022/11/04 11:10:32;;;;;;;;;;;;;;;;;;7367994;19;1817;-57
2022/11/04 11:13:01;;;;;;;;;;;;;;;;;;7370166;19;902;-64
2022/11/04 11:15:29;;;;;;;;;;;;;;;;;;7370053;19;723;-62
2022/11/04 11:17:57;;;;;;;;;;;;;;;;;;7367605;19;904;-63
2022/11/04 11:20:26;;;;;;;;;;;;;;;;;;7366946;19;1298;-62
2022/11/04 11:22:55;;;;;;;;;;;;;;;;;;7369617;19;853;-62
2022/11/04 11:25:23;;;;;;;;;;;;;;;;;;7368035;19;875;-62
2022/11/04 11:27:52;;;;;;;;;;;;;;;;;;7369953;19;1944;-60
2022/11/04 11:30:20;;;;;;;;;;;;;;;;;;7367648;19;1997;-62
2022/11/04 11:32:52;;;;;;;;;;;;;;;;;;7373693;19;1958;-62
2022/11/04 11:35:20;;;;;;;;;;;;;;;;;;7374463;19;1485;-62
2022/11/04 11:37:48;;;;;;;;;;;;;;;;;;7370574;19;2077;-61
2022/11/04 11:40:17;;;;;;;;;;;;;;;;;;7367479;19;1278;-62
2022/11/04 11:42:45;;;;;;;;;;;;;;;;;;7368736;19;783;-62
2022/11/04 11:45:13;;;;;;;;;;;;;;;;;;7368660;19;821;-58
2022/11/04 11:47:42;;;;;;;;;;;;;;;;;;7368585;19;819;-63
2022/11/04 11:50:11;;;;;;;;;;;;;;;;;;7366796;19;1845;-63
2022/11/04 11:52:39;;;;;;;;;;;;;;;;;;7368962;19;1856;-61
2022/11/04 11:55:07;;;;;;;;;;;;;;;;;;7368800;19;860;-60
2022/11/04 11:57:35;;;;;;;;;;;;;;;;;;7368355;19;942;-62
2022/11/04 12:00:05;;;;;;;;;;;;;;;;;;7368246;19;1810;-60
2022/11/04 12:02:40;;;;;;;;;;;;;;;;;;7372299;19;1928;-56
2022/11/04 12:05:08;;;;;;;;;;;;;;;;;;7369439;19;1897;-60
2022/11/04 12:07:36;;;;;;;;;;;;;;;;;;7370425;19;1675;-62
2022/11/04 12:10:04;;;;;;;;;;;;;;;;;;7367136;19;1980;-61
2022/11/04 12:12:33;;;;;;;;;;;;;;;;;;7368455;19;810;-61
2022/11/04 12:15:01;;;;;;;;;;;;;;;;;;7370649;19;1859;-59
2022/11/04 12:17:29;;;;;;;;;;;;;;;;;;7369284;19;2193;-61
2022/11/04 12:19:57;;;;;;;;;;;;;;;;;;7370841;19;1915;-59
2022/11/04 12:22:26;;;;;;;;;;;;;;;;;;7370179;19;774;-57
2022/11/04 12:24:55;;;;;;;;;;;;;;;;;;7368856;19;834;-58
2022/11/04 12:27:23;;;;;;;;;;;;;;;;;;7368191;19;849;-61
2022/11/04 12:29:51;;;;;;;;;;;;;;;;;;7365861;19;1850;-61
2022/11/04 12:32:19;;;;;;;;;;;;;;;;;;7367764;19;842;-58
2022/11/04 12:34:48;;;;;;;;;;;;;;;;;;7368122;19;866;-61
2022/11/04 12:37:16;;;;;;;;;;;;;;;;;;7367521;19;842;-64
2022/11/04 12:39:44;;;;;;;;;;;;;;;;;;7366144;19;1341;-59
2022/11/04 12:42:12;;;;;;;;;;;;;;;;;;7367441;19;834;-60
2022/11/04 12:44:41;;;;;;;;;;;;;;;;;;7368984;19;792;-60
2022/11/04 12:47:09;;;;;;;;;;;;;;;;;;7371447;19;1935;-63
2022/11/04 12:49:39;;;;;;;;;;;;;;;;;;7369577;19;1849;-61
2022/11/04 12:52:07;;;;;;;;;;;;;;;;;;7375252;19;649;-58
2022/11/04 12:54:35;;;;;;;;;;;;;;;;;;7378003;19;902;-61
2022/11/04 12:57:06;;;;;;;;;;;;;;;;;;7376343;19;985;-59
2022/11/04 12:59:34;;;;;;;;;;;;;;;;;;7376688;19;1356;-62
2022/11/04 13:02:03;;;;;;;;;;;;;;;;;;7377669;19;830;-60
2022/11/04 13:04:31;;;;;;;;;;;;;;;;;;7379216;19;803;-62
2022/11/04 13:06:59;;;;;;;;;;;;;;;;;;7376408;19;859;-60
2022/11/04 13:09:27;;;;;;;;;;;;;;;;;;7373733;19;1865;-61
2022/11/04 13:11:56;;;;;;;;;;;;;;;;;;7377506;19;1947;-63
2022/11/04 13:14:28;;;;;;;;;;;;;;;;;;7374766;19;742;-61
2022/11/04 13:16:56;;;;;;;;;;;;;;;;;;7377579;19;1944;-61
2022/11/04 13:19:27;;;;;;;;;;;;;;;;;;7375883;19;1920;-62
2022/11/04 13:21:55;;;;;;;;;;;;;;;;;;7374263;19;746;-59
2022/11/04 13:24:23;;;;;;;;;;;;;;;;;;7372467;19;795;-60
2022/11/04 13:26:52;;;;;;;;;;;;;;;;;;7372990;19;906;-60
2022/11/04 13:29:20;;;;;;;;;;;;;;;;;;7372407;19;2213;-59
2022/11/04 13:31:49;;;;;;;;;;;;;;;;;;7370775;19;1855;-59
2022/11/04 13:34:17;;;;;;;;;;;;;;;;;;7372675;19;875;-63
2022/11/04 13:36:45;;;;;;;;;;;;;;;;;;7371191;19;865;-63
2022/11/04 13:39:13;;;;;;;;;;;;;;;;;;7372137;19;1337;-61
2022/11/04 13:41:41;;;;;;;;;;;;;;;;;;7374033;19;1939;-61
2022/11/04 13:44:09;;;;;;;;;;;;;;;;;;7372545;19;843;-62
2022/11/04 13:46:38;;;;;;;;;;;;;;;;;;7373827;19;2306;-60
2022/11/04 13:49:06;;;;;;;;;;;;;;;;;;7372524;19;1973;-62
2022/11/04 13:51:34;;;;;;;;;;;;;;;;;;7369001;19;1835;-60
2022/11/04 13:54:02;;;;;;;;;;;;;;;;;;7371811;19;886;-59
2022/11/04 13:56:30;;;;;;;;;;;;;;;;;;7371859;19;820;-57
2022/11/04 13:58:58;;;;;;;;;;;;;;;;;;7371019;19;1345;-58
2022/11/04 14:01:27;;;;;;;;;;;;;;;;;;7371828;19;2010;-62
2022/11/04 14:03:55;;;;;;;;;;;;;;;;;;7371626;19;830;-61
2022/11/04 14:06:23;;;;;;;;;;;;;;;;;;7371815;19;822;-56
2022/11/04 14:08:51;;;;;;;;;;;;;;;;;;7368981;19;1326;-58
2022/11/04 14:11:19;;;;;;;;;;;;;;;;;;7369586;19;1843;-59
2022/11/04 14:13:47;;;;;;;;;;;;;;;;;;7371370;19;706;-57
2022/11/04 14:16:16;;;;;;;;;;;;;;;;;;7373795;19;1788;-62
2022/11/04 14:18:44;;;;;;;;;;;;;;;;;;7374098;19;1898;-62
2022/11/04 14:21:12;;;;;;;;;;;;;;;;;;7371350;19;843;-61
2022/11/04 14:23:40;;;;;;;;;;;;;;;;;;7371508;19;808;-62
2022/11/04 14:26:09;;;;;;;;;;;;;;;;;;7371634;19;843;-59
2022/11/04 14:28:37;;;;;;;;;;;;;;;;;;7371031;19;857;-63
2022/11/04 14:31:05;;;;;;;;;;;;;;;;;;7371035;19;1859;-62
2022/11/04 14:33:33;;;;;;;;;;;;;;;;;;7374804;19;1929;-63
2022/11/04 14:36:02;;;;;;;;;;;;;;;;;;7372347;19;2136;-59
2022/11/04 14:38:30;;;;;;;;;;;;;;;;;;7372766;19;1993;-58
2022/11/04 14:40:59;;;;;;;;;;;;;;;;;;7370717;19;2027;-61
2022/11/04 14:43:27;;;;;;;;;;;;;;;;;;7375354;19;1525;-62
2022/11/04 14:45:55;;;;;;;;;;;;;;;;;;7374389;19;1637;-63
2022/11/04 14:48:23;;;;;;;;;;;;;;;;;;7373874;19;1706;-58
2022/11/04 14:50:51;;;;;;;;;;;;;;;;;;7370864;19;1845;-57
2022/11/04 14:53:19;;;;;;;;;;;;;;;;;;7373575;19;1605;-62
2022/11/04 14:55:47;;;;;;;;;;;;;;;;;;7369682;19;836;-62
2022/11/04 14:58:16;;;;;;;;;;;;;;;;;;7370108;19;846;-62
2022/11/04 15:00:44;;;;;;;;;;;;;;;;;;7367644;19;1324;-58
2022/11/04 15:03:12;;;;;;;;;;;;;;;;;;7372041;19;1830;-59
2022/11/04 15:05:40;;;;;;;;;;;;;;;;;;7372445;19;1795;-59
2022/11/04 15:08:08;;;;;;;;;;;;;;;;;;7374224;19;1582;-58
2022/11/04 15:10:36;;;;;;;;;;;;;;;;;;7369907;19;2045;-60
2022/11/04 15:13:05;;;;;;;;;;;;;;;;;;7370813;19;1763;-61
2022/11/04 15:15:33;;;;;;;;;;;;;;;;;;7373657;19;1827;-59
2022/11/04 15:18:01;;;;;;;;;;;;;;;;;;7372930;19;1134;-63
2022/11/04 15:20:30;;;;;;;;;;;;;;;;;;7368926;19;1820;-63
2022/11/04 15:22:58;;;;;;;;;;;;;;;;;;7373215;19;1596;-64
2022/11/04 15:25:26;;;;;;;;;;;;;;;;;;7370104;19;861;-64
2022/11/04 15:27:54;;;;;;;;;;;;;;;;;;7370804;19;1806;-64
2022/11/04 15:30:22;;;;;;;;;;;;;;;;;;7368192;19;1833;-62
2022/11/04 15:32:50;;;;;;;;;;;;;;;;;;7369634;19;841;-61
2022/11/04 15:35:19;;;;;;;;;;;;;;;;;;7371423;19;1821;-59
2022/11/04 15:37:48;;;;;;;;;;;;;;;;;;7371900;19;1774;-59
2022/11/04 15:40:16;;;;;;;;;;;;;;;;;;7369748;19;1841;-58
2022/11/04 15:42:43;;;;;;;;;;;;;;;;;;7371758;19;1803;-59
2022/11/04 15:45:11;;;;;;;;;;;;;;;;;;7373407;19;1806;-53
2022/11/04 15:47:39;;;;;;;;;;;;;;;;;;7369528;19;850;-60
2022/11/04 15:50:07;;;;;;;;;;;;;;;;;;7367005;19;1299;-61
2022/11/04 15:52:36;;;;;;;;;;;;;;;;;;7368911;19;849;-62
2022/11/04 15:55:04;;;;;;;;;;;;;;;;;;7368455;19;743;-60
2022/11/04 15:57:32;;;;;;;;;;;;;;;;;;7370541;19;1797;-61
2022/11/04 16:00:00;;;;;;;;;;;;;;;;;;7366644;19;1278;-60
2022/11/04 16:02:29;;;;;;;;;;;;;;;;;;7368571;19;2084;-58
2022/11/04 16:04:57;;;;;;;;;;;;;;;;;;7369070;19;854;-58
2022/11/04 16:07:25;;;;;;;;;;;;;;;;;;7370698;19;1763;-62
2022/11/04 16:09:53;;;;;;;;;;;;;;;;;;7366090;19;1286;-63
2022/11/04 16:12:22;;;;;;;;;;;;;;;;;;7365091;19;1843;-59
2022/11/04 16:14:53;;;;;;;;;;;;;;;;;;7368361;19;768;-62
2022/11/04 16:17:22;;;;;;;;;;;;;;;;;;7367591;19;819;-61
2022/11/04 16:19:50;;;;;;;;;;;;;;;;;;7367706;19;1813;-61
2022/11/04 16:22:18;;;;;;;;;;;;;;;;;;7364920;19;795;-58
2022/11/04 16:24:46;;;;;;;;;;;;;;;;;;7365287;19;1769;-60
2022/11/04 16:27:14;;;;;;;;;;;;;;;;;;7370855;19;1765;-55
2022/11/04 16:29:43;;;;;;;;;;;;;;;;;;7364808;19;1377;-60
2022/11/04 16:32:11;;;;;;;;;;;;;;;;;;7364766;19;1854;-61
2022/11/04 16:34:39;;;;;;;;;;;;;;;;;;7370155;19;1568;-62
2022/11/04 16:37:07;;;;;;;;;;;;;;;;;;7366835;19;1778;-59
2022/11/04 16:39:35;;;;;;;;;;;;;;;;;;7364726;19;1264;-57
2022/11/04 16:42:04;;;;;;;;;;;;;;;;;;7367584;19;1789;-61
2022/11/04 16:44:32;;;;;;;;;;;;;;;;;;7366570;19;1792;-55
2022/11/04 16:47:00;;;;;;;;;;;;;;;;;;7368507;19;1816;-55
2022/11/04 16:49:29;;;;;;;;;;;;;;;;;;7368289;19;1770;-62
2022/11/04 16:51:57;;;;;;;;;;;;;;;;;;7365731;19;1814;-58
2022/11/04 16:54:26;;;;;;;;;;;;;;;;;;7366425;19;799;-62
2022/11/04 16:56:54;;;;;;;;;;;;;;;;;;7366722;19;803;-60
2022/11/04 16:59:22;;;;;;;;;;;;;;;;;;7363834;19;1373;-58
2022/11/04 17:01:50;;;;;;;;;;;;;;;;;;7369052;19;1789;-57
2022/11/04 17:04:18;;;;;;;;;;;;;;;;;;7369713;19;1776;-61
2022/11/04 17:06:47;;;;;;;;;;;;;;;;;;7367505;19;1792;-59
2022/11/04 17:09:15;;;;;;;;;;;;;;;;;;7364466;19;1360;-61
2022/11/04 17:11:43;;;;;;;;;;;;;;;;;;7365456;19;1834;-60
2022/11/04 17:14:11;;;;;;;;;;;;;;;;;;7364850;19;831;-61
2022/11/04 17:16:39;;;;;;;;;;;;;;;;;;7366037;19;854;-61
2022/11/04 17:19:07;;;;;;;;;;;;;;;;;;7364392;19;1913;-60
2022/11/04 17:21:36;;;;;;;;;;;;;;;;;;7365909;19;1790;-57
2022/11/04 17:24:04;;;;;;;;;;;;;;;;;;7365705;19;862;-62
2022/11/04 17:26:33;;;;;;;;;;;;;;;;;;7364468;19;855;-61
2022/11/04 17:29:01;;;;;;;;;;;;;;;;;;7364950;19;1306;-60
2022/11/04 17:31:29;;;;;;;;;;;;;;;;;;7363561;19;1844;-57
2022/11/04 17:33:57;;;;;;;;;;;;;;;;;;7369237;19;1756;-59
2022/11/04 17:36:26;;;;;;;;;;;;;;;;;;7367740;19;783;-56
2022/11/04 17:38:54;;;;;;;;;;;;;;;;;;7370361;19;1251;-57
2022/11/04 17:44:03;;;;;;;;;;;;;;;;;;7373944;19;2037;-57
2022/11/04 17:46:43;;;;;;;;;;;;;;;;;;7373343;19;1811;-58
2022/11/04 17:49:11;;;;;;;;;;;;;;;;;;7370584;19;1314;-58
2022/11/04 17:51:39;;;;;;;;;;;;;;;;;;7370034;19;1867;-56
2022/11/04 17:54:09;;;;;;;;;;;;;;;;;;7371580;19;815;-63